Thursday, September 20, 2018, 12:33 PM EDT
Back to Local

KCEF, Chicopee Falls / Westover Air Force Base

Location: Chicopee, MA, United States Lat: 42.2
Local Time: 12:33 PM EDT (16:33 GMT) Lon: -72.533
Time Zone: US/Eastern Elev: 246 ft

Show me the last for .
Show Decoded

2018-09-20 11:56 METAR KCEF 201556Z 06005KT 10SM BKN025 BKN150 19/12 A3025 RMK AO2A SLP249
                 T01860116 =
2018-09-20 10:56 METAR KCEF 201456Z 06007KT 10SM BKN023 OVC050 18/12 A3027 RMK AO2A SLP256
                 T01770117 52018 =
2018-09-19 18:56 METAR KCEF 192256Z 00000KT 10SM SCT029 BKN046 BKN250 19/15 A2999 RMK AO2A SLP161
                 T01900153 =
2018-09-19 17:56 METAR KCEF 192156Z 10006KT 10SM FEW047 SCT250 21/16 A2997 RMK AO2A SLP154
                 T02090159 =
2018-09-19 16:56 METAR KCEF 192056Z 10003KT 10SM FEW025 SCT045 BKN250 22/16 A2995 RMK AO2A SLP147
                 T02230161 50009 =
2018-09-19 15:56 METAR KCEF 191956Z VRB04KT 10SM FEW024 SCT044 SCT250 23/17 A2992 RMK AO2A SLP137
                 T02320167 =
2018-09-19 14:56 METAR KCEF 191856Z 15004KT 10SM FEW025 SCT041 BKN250 24/17 A2992 RMK AO2A SLP137
                 T02370167 =
2018-09-19 13:56 METAR KCEF 191756Z 14005KT 10SM FEW035 OVC045 BKN250 23/17 A2992 RMK AO2A SLP137
                 T02330173 10244 20185 53001 =
2018-09-19 12:56 METAR KCEF 191656Z 02009KT 10SM SCT036 BKN047 BKN250 24/15 A2993 RMK AO2A SLP140
                 T02370149 =

Support USWX by starting your Amazon purchase here.